Aviation Digital Data Service (ADDS)

Output produced by METARs form (1906 UTC 18 April 2019)
found at http://www.aviationweather.gov/metar/data/
 
METAR text: OITT 181900Z 03004KT 9999 FEW030 BKN180 08/03 Q1014 A2997 NOSIG
Conditions at: OITT (TABRIZ(IRAN-AB/C, IR) observed 1900 UTC 18 April 2019
Temperature: 8.0°C (46°F)
Dewpoint: 3.0°C (37°F) [RH = 71%]
Pressure (altimeter): 29.94 inches Hg (1014.0 mb)
Winds: from the NNE (30 degrees) at 5 MPH (4 knots; 2.1 m/s)
Visibility: 6 or more miles (10+ km)
Ceiling: 18000 feet AGL
Clouds: few clouds at 3000 feet AGL
broken clouds at 18000 feet AGL
Weather: no significant weather observed at this time

METAR text: OITT 181830Z 04004KT 9999 FEW030 FEW032CB BKN180 09/02 Q1014 A2997
Conditions at: OITT (TABRIZ(IRAN-AB/C, IR) observed 1830 UTC 18 April 2019
Temperature: 9.0°C (48°F)
Dewpoint: 2.0°C (36°F) [RH = 61%]
Pressure (altimeter): 29.94 inches Hg (1014.0 mb)
Winds: from the NE (40 degrees) at 5 MPH (4 knots; 2.1 m/s)
Visibility: 6 or more miles (10+ km)
Ceiling: 18000 feet AGL
Clouds: few clouds at 3000 feet AGL
few clouds at 3200 feet AGL
broken clouds at 18000 feet AGL
Weather: no significant weather observed at this time

METAR text: OITT 181800Z 04004KT 9999 FEW030 FEW032CB BKN180 10/02 Q1014 A2997 NOSIG
Conditions at: OITT (TABRIZ(IRAN-AB/C, IR) observed 1800 UTC 18 April 2019
Temperature: 10.0°C (50°F)
Dewpoint: 2.0°C (36°F) [RH = 57%]
Pressure (altimeter): 29.94 inches Hg (1014.0 mb)
Winds: from the NE (40 degrees) at 5 MPH (4 knots; 2.1 m/s)
Visibility: 6 or more miles (10+ km)
Ceiling: 18000 feet AGL
Clouds: few clouds at 3000 feet AGL
few clouds at 3200 feet AGL
broken clouds at 18000 feet AGL
Weather: no significant weather observed at this time

METAR text: OITT 181730Z 04004KT 9999 FEW030 FEW035CB SCT180 09/02 Q1014 A2996
Conditions at: OITT (TABRIZ(IRAN-AB/C, IR) observed 1730 UTC 18 April 2019
Temperature: 9.0°C (48°F)
Dewpoint: 2.0°C (36°F) [RH = 61%]
Pressure (altimeter): 29.94 inches Hg (1014.0 mb)
Winds: from the NE (40 degrees) at 5 MPH (4 knots; 2.1 m/s)
Visibility: 6 or more miles (10+ km)
Ceiling: at least 12,000 feet AGL
Clouds: few clouds at 3000 feet AGL
few clouds at 3500 feet AGL
scattered clouds at 18000 feet AGL
Weather: no significant weather observed at this time

METAR text: OITT 181700Z 02004KT 9999 FEW030 FEW035CB SCT180 10/02 Q1014 A2995 NOSIG
Conditions at: OITT (TABRIZ(IRAN-AB/C, IR) observed 1700 UTC 18 April 2019
Temperature: 10.0°C (50°F)
Dewpoint: 2.0°C (36°F) [RH = 57%]
Pressure (altimeter): 29.94 inches Hg (1014.0 mb)
Winds: from the NNE (20 degrees) at 5 MPH (4 knots; 2.1 m/s)
Visibility: 6 or more miles (10+ km)
Ceiling: at least 12,000 feet AGL
Clouds: few clouds at 3000 feet AGL
few clouds at 3500 feet AGL
scattered clouds at 18000 feet AGL
Weather: no significant weather observed at this time

METAR text: OITT 181630Z VRB02KT 9999 FEW030 FEW035CB SCT180 10/02 Q1014 A2995
Conditions at: OITT (TABRIZ(IRAN-AB/C, IR) observed 1630 UTC 18 April 2019
Temperature: 10.0°C (50°F)
Dewpoint: 2.0°C (36°F) [RH = 57%]
Pressure (altimeter): 29.94 inches Hg (1014.0 mb)
Winds: variable direction winds at 2 MPH (2 knots; 1.0 m/s)
Visibility: 6 or more miles (10+ km)
Ceiling: at least 12,000 feet AGL
Clouds: few clouds at 3000 feet AGL
few clouds at 3500 feet AGL
scattered clouds at 18000 feet AGL
Weather: no significant weather observed at this time

METAR text: OITT 181600Z VRB02KT 9999 FEW030 FEW035CB SCT180 10/02 Q1014 A2994 NOSIG
Conditions at: OITT (TABRIZ(IRAN-AB/C, IR) observed 1600 UTC 18 April 2019
Temperature: 10.0°C (50°F)
Dewpoint: 2.0°C (36°F) [RH = 57%]
Pressure (altimeter): 29.94 inches Hg (1014.0 mb)
Winds: variable direction winds at 2 MPH (2 knots; 1.0 m/s)
Visibility: 6 or more miles (10+ km)
Ceiling: at least 12,000 feet AGL
Clouds: few clouds at 3000 feet AGL
few clouds at 3500 feet AGL
scattered clouds at 18000 feet AGL
Weather: no significant weather observed at this time

METAR text: OITT 181530Z 24004KT 9999 FEW035 BKN190 12/M00 Q1014 A2994
Conditions at: OITT (TABRIZ(IRAN-AB/C, IR) observed 1530 UTC 18 April 2019
Temperature: 12.0°C (54°F)
Dewpoint: 0.0°C (32°F) [RH = 44%]
Pressure (altimeter): 29.94 inches Hg (1014.0 mb)
Winds: from the WSW (240 degrees) at 5 MPH (4 knots; 2.1 m/s)
Visibility: 6 or more miles (10+ km)
Ceiling: 19000 feet AGL
Clouds: few clouds at 3500 feet AGL
broken clouds at 19000 feet AGL
Weather: no significant weather observed at this time

METAR text: OITT 181500Z 24008KT 9999 FEW035 BKN190 13/M00 Q1014 A2994 NOSIG
Conditions at: OITT (TABRIZ(IRAN-AB/C, IR) observed 1500 UTC 18 April 2019
Temperature: 13.0°C (55°F)
Dewpoint: 0.0°C (32°F) [RH = 41%]
Pressure (altimeter): 29.94 inches Hg (1014.0 mb)
Winds: from the WSW (240 degrees) at 9 MPH (8 knots; 4.1 m/s)
Visibility: 6 or more miles (10+ km)
Ceiling: 19000 feet AGL
Clouds: few clouds at 3500 feet AGL
broken clouds at 19000 feet AGL
Weather: no significant weather observed at this time

METAR text: OITT 181430Z 25008KT 9999 FEW035 BKN190 14/M00 Q1013 A2994
Conditions at: OITT (TABRIZ(IRAN-AB/C, IR) observed 1430 UTC 18 April 2019
Temperature: 14.0°C (57°F)
Dewpoint: 0.0°C (32°F) [RH = 38%]
Pressure (altimeter): 29.91 inches Hg (1013.0 mb)
Winds: from the WSW (250 degrees) at 9 MPH (8 knots; 4.1 m/s)
Visibility: 6 or more miles (10+ km)
Ceiling: 19000 feet AGL
Clouds: few clouds at 3500 feet AGL
broken clouds at 19000 feet AGL
Weather: no significant weather observed at this time

METAR text: OITT 181400Z 25010KT 9999 FEW035 BKN190 14/00 Q1013 A2994 NOSIG
Conditions at: OITT (TABRIZ(IRAN-AB/C, IR) observed 1400 UTC 18 April 2019
Temperature: 14.0°C (57°F)
Dewpoint: 0.0°C (32°F) [RH = 38%]
Pressure (altimeter): 29.91 inches Hg (1013.0 mb)
Winds: from the WSW (250 degrees) at 12 MPH (10 knots; 5.1 m/s)
Visibility: 6 or more miles (10+ km)
Ceiling: 19000 feet AGL
Clouds: few clouds at 3500 feet AGL
broken clouds at 19000 feet AGL
Weather: no significant weather observed at this time

METAR text: OITT 181330Z 26012KT 9999 FEW035 BKN170 14/01 Q1014 A2995
Conditions at: OITT (TABRIZ(IRAN-AB/C, IR) observed 1330 UTC 18 April 2019
Temperature: 14.0°C (57°F)
Dewpoint: 1.0°C (34°F) [RH = 41%]
Pressure (altimeter): 29.94 inches Hg (1014.0 mb)
Winds: from the W (260 degrees) at 14 MPH (12 knots; 6.2 m/s)
Visibility: 6 or more miles (10+ km)
Ceiling: 17000 feet AGL
Clouds: few clouds at 3500 feet AGL
broken clouds at 17000 feet AGL
Weather: no significant weather observed at this time

METAR text: OITT 181300Z 26012KT 9999 FEW035 BKN180 14/01 Q1014 A2995 NOSIG
Conditions at: OITT (TABRIZ(IRAN-AB/C, IR) observed 1300 UTC 18 April 2019
Temperature: 14.0°C (57°F)
Dewpoint: 1.0°C (34°F) [RH = 41%]
Pressure (altimeter): 29.94 inches Hg (1014.0 mb)
Winds: from the W (260 degrees) at 14 MPH (12 knots; 6.2 m/s)
Visibility: 6 or more miles (10+ km)
Ceiling: 18000 feet AGL
Clouds: few clouds at 3500 feet AGL
broken clouds at 18000 feet AGL
Weather: no significant weather observed at this time

METAR text: OITT 181230Z 25010KT 9999 SCT035TCU BKN190 15/02 Q1014 A2995
Conditions at: OITT (TABRIZ(IRAN-AB/C, IR) observed 1230 UTC 18 April 2019
Temperature: 15.0°C (59°F)
Dewpoint: 2.0°C (36°F) [RH = 41%]
Pressure (altimeter): 29.94 inches Hg (1014.0 mb)
Winds: from the WSW (250 degrees) at 12 MPH (10 knots; 5.1 m/s)
Visibility: 6 or more miles (10+ km)
Ceiling: 19000 feet AGL
Clouds: scattered clouds at 3500 feet AGL
broken clouds at 19000 feet AGL
Weather: no significant weather observed at this time

METAR text: OITT 181200Z 25012KT 9999 SCT035TCU SCT190 15/01 Q1014 A2996 NOSIG
Conditions at: OITT (TABRIZ(IRAN-AB/C, IR) observed 1200 UTC 18 April 2019
Temperature: 15.0°C (59°F)
Dewpoint: 1.0°C (34°F) [RH = 39%]
Pressure (altimeter): 29.94 inches Hg (1014.0 mb)
Winds: from the WSW (250 degrees) at 14 MPH (12 knots; 6.2 m/s)
Visibility: 6 or more miles (10+ km)
Ceiling: at least 12,000 feet AGL
Clouds: scattered clouds at 3500 feet AGL
scattered clouds at 19000 feet AGL
Weather: no significant weather observed at this time

METAR text: OITT 181130Z 24012KT 9999 SCT035TCU SCT190 15/01 Q1014 A2996
Conditions at: OITT (TABRIZ(IRAN-AB/C, IR) observed 1130 UTC 18 April 2019
Temperature: 15.0°C (59°F)
Dewpoint: 1.0°C (34°F) [RH = 39%]
Pressure (altimeter): 29.94 inches Hg (1014.0 mb)
Winds: from the WSW (240 degrees) at 14 MPH (12 knots; 6.2 m/s)
Visibility: 6 or more miles (10+ km)
Ceiling: at least 12,000 feet AGL
Clouds: scattered clouds at 3500 feet AGL
scattered clouds at 19000 feet AGL
Weather: no significant weather observed at this time

METAR text: OITT 181100Z 25010KT 9999 SCT035TCU 15/00 Q1015 A2997 NOSIG
Conditions at: OITT (TABRIZ(IRAN-AB/C, IR) observed 1100 UTC 18 April 2019
Temperature: 15.0°C (59°F)
Dewpoint: 0.0°C (32°F) [RH = 36%]
Pressure (altimeter): 29.97 inches Hg (1015.0 mb)
Winds: from the WSW (250 degrees) at 12 MPH (10 knots; 5.1 m/s)
Visibility: 6 or more miles (10+ km)
Ceiling: at least 12,000 feet AGL
Clouds: scattered clouds at 3500 feet AGL
Weather: no significant weather observed at this time

METAR text: OITT 181030Z 24010KT 9999 SCT032TCU 15/02 Q1015 A2998
Conditions at: OITT (TABRIZ(IRAN-AB/C, IR) observed 1030 UTC 18 April 2019
Temperature: 15.0°C (59°F)
Dewpoint: 2.0°C (36°F) [RH = 41%]
Pressure (altimeter): 29.97 inches Hg (1015.0 mb)
Winds: from the WSW (240 degrees) at 12 MPH (10 knots; 5.1 m/s)
Visibility: 6 or more miles (10+ km)
Ceiling: at least 12,000 feet AGL
Clouds: scattered clouds at 3200 feet AGL
Weather: no significant weather observed at this time

METAR text: OITT 181000Z 23012KT 9999 SCT032TCU 14/01 Q1015 A2998 NOSIG
Conditions at: OITT (TABRIZ(IRAN-AB/C, IR) observed 1000 UTC 18 April 2019
Temperature: 14.0°C (57°F)
Dewpoint: 1.0°C (34°F) [RH = 41%]
Pressure (altimeter): 29.97 inches Hg (1015.0 mb)
Winds: from the SW (230 degrees) at 14 MPH (12 knots; 6.2 m/s)
Visibility: 6 or more miles (10+ km)
Ceiling: at least 12,000 feet AGL
Clouds: scattered clouds at 3200 feet AGL
Weather: no significant weather observed at this time

METAR text: OITT 180930Z 25014KT 9999 SCT032TCU 14/04 Q1015 A2998
Conditions at: OITT (TABRIZ(IRAN-AB/C, IR) observed 0930 UTC 18 April 2019
Temperature: 14.0°C (57°F)
Dewpoint: 4.0°C (39°F) [RH = 51%]
Pressure (altimeter): 29.97 inches Hg (1015.0 mb)
Winds: from the WSW (250 degrees) at 16 MPH (14 knots; 7.2 m/s)
Visibility: 6 or more miles (10+ km)
Ceiling: at least 12,000 feet AGL
Clouds: scattered clouds at 3200 feet AGL
Weather: no significant weather observed at this time

METAR text: OITT 180900Z 24014KT 9999 SCT032TCU 14/02 Q1015 A2998 NOSIG
Conditions at: OITT (TABRIZ(IRAN-AB/C, IR) observed 0900 UTC 18 April 2019
Temperature: 14.0°C (57°F)
Dewpoint: 2.0°C (36°F) [RH = 44%]
Pressure (altimeter): 29.97 inches Hg (1015.0 mb)
Winds: from the WSW (240 degrees) at 16 MPH (14 knots; 7.2 m/s)
Visibility: 6 or more miles (10+ km)
Ceiling: at least 12,000 feet AGL
Clouds: scattered clouds at 3200 feet AGL
Weather: no significant weather observed at this time

METAR text: OITT 180830Z 25014KT 9999 SCT032TCU 13/02 Q1015 A2998
Conditions at: OITT (TABRIZ(IRAN-AB/C, IR) observed 0830 UTC 18 April 2019
Temperature: 13.0°C (55°F)
Dewpoint: 2.0°C (36°F) [RH = 47%]
Pressure (altimeter): 29.97 inches Hg (1015.0 mb)
Winds: from the WSW (250 degrees) at 16 MPH (14 knots; 7.2 m/s)
Visibility: 6 or more miles (10+ km)
Ceiling: at least 12,000 feet AGL
Clouds: scattered clouds at 3200 feet AGL
Weather: no significant weather observed at this time

METAR text: OITT 180800Z 26014KT 9999 SCT032 13/01 Q1015 A2999 NOSIG
Conditions at: OITT (TABRIZ(IRAN-AB/C, IR) observed 0800 UTC 18 April 2019
Temperature: 13.0°C (55°F)
Dewpoint: 1.0°C (34°F) [RH = 44%]
Pressure (altimeter): 29.97 inches Hg (1015.0 mb)
Winds: from the W (260 degrees) at 16 MPH (14 knots; 7.2 m/s)
Visibility: 6 or more miles (10+ km)
Ceiling: at least 12,000 feet AGL
Clouds: scattered clouds at 3200 feet AGL
Weather: no significant weather observed at this time

METAR text: OITT 180730Z 26012KT 9999 FEW030 13/02 Q1015 A2998
Conditions at: OITT (TABRIZ(IRAN-AB/C, IR) observed 0730 UTC 18 April 2019
Temperature: 13.0°C (55°F)
Dewpoint: 2.0°C (36°F) [RH = 47%]
Pressure (altimeter): 29.97 inches Hg (1015.0 mb)
Winds: from the W (260 degrees) at 14 MPH (12 knots; 6.2 m/s)
Visibility: 6 or more miles (10+ km)
Ceiling: at least 12,000 feet AGL
Clouds: few clouds at 3000 feet AGL
Weather: no significant weather observed at this time

METAR text: OITT 180700Z 25010KT 9999 FEW030 12/01 Q1015 A2998 NOSIG
Conditions at: OITT (TABRIZ(IRAN-AB/C, IR) observed 0700 UTC 18 April 2019
Temperature: 12.0°C (54°F)
Dewpoint: 1.0°C (34°F) [RH = 47%]
Pressure (altimeter): 29.97 inches Hg (1015.0 mb)
Winds: from the WSW (250 degrees) at 12 MPH (10 knots; 5.1 m/s)
Visibility: 6 or more miles (10+ km)
Ceiling: at least 12,000 feet AGL
Clouds: few clouds at 3000 feet AGL
Weather: no significant weather observed at this time

METAR text: OITT 180630Z 25014KT 9999 FEW030 12/01 Q1015 A3000
Conditions at: OITT (TABRIZ(IRAN-AB/C, IR) observed 0630 UTC 18 April 2019
Temperature: 12.0°C (54°F)
Dewpoint: 1.0°C (34°F) [RH = 47%]
Pressure (altimeter): 29.97 inches Hg (1015.0 mb)
Winds: from the WSW (250 degrees) at 16 MPH (14 knots; 7.2 m/s)
Visibility: 6 or more miles (10+ km)
Ceiling: at least 12,000 feet AGL
Clouds: few clouds at 3000 feet AGL
Weather: no significant weather observed at this time

METAR text: OITT 180600Z 26006KT 9999 FEW030 11/02 Q1015 A3000 NOSIG
Conditions at: OITT (TABRIZ(IRAN-AB/C, IR) observed 0600 UTC 18 April 2019
Temperature: 11.0°C (52°F)
Dewpoint: 2.0°C (36°F) [RH = 54%]
Pressure (altimeter): 29.97 inches Hg (1015.0 mb)
Winds: from the W (260 degrees) at 7 MPH (6 knots; 3.1 m/s)
Visibility: 6 or more miles (10+ km)
Ceiling: at least 12,000 feet AGL
Clouds: few clouds at 3000 feet AGL
Weather: no significant weather observed at this time

METAR text: OITT 180530Z 26006KT 9999 FEW035 11/01 Q1015 A2999
Conditions at: OITT (TABRIZ(IRAN-AB/C, IR) observed 0530 UTC 18 April 2019
Temperature: 11.0°C (52°F)
Dewpoint: 1.0°C (34°F) [RH = 50%]
Pressure (altimeter): 29.97 inches Hg (1015.0 mb)
Winds: from the W (260 degrees) at 7 MPH (6 knots; 3.1 m/s)
Visibility: 6 or more miles (10+ km)
Ceiling: at least 12,000 feet AGL
Clouds: few clouds at 3500 feet AGL
Weather: no significant weather observed at this time

METAR text: OITT 180500Z VRB02KT 9999 FEW035 10/01 Q1015 A2999 NOSIG
Conditions at: OITT (TABRIZ(IRAN-AB/C, IR) observed 0500 UTC 18 April 2019
Temperature: 10.0°C (50°F)
Dewpoint: 1.0°C (34°F) [RH = 53%]
Pressure (altimeter): 29.97 inches Hg (1015.0 mb)
Winds: variable direction winds at 2 MPH (2 knots; 1.0 m/s)
Visibility: 6 or more miles (10+ km)
Ceiling: at least 12,000 feet AGL
Clouds: few clouds at 3500 feet AGL
Weather: no significant weather observed at this time

METAR text: OITT 180430Z VRB02KT 9999 FEW035 09/01 Q1015 A2999
Conditions at: OITT (TABRIZ(IRAN-AB/C, IR) observed 0430 UTC 18 April 2019
Temperature: 9.0°C (48°F)
Dewpoint: 1.0°C (34°F) [RH = 57%]
Pressure (altimeter): 29.97 inches Hg (1015.0 mb)
Winds: variable direction winds at 2 MPH (2 knots; 1.0 m/s)
Visibility: 6 or more miles (10+ km)
Ceiling: at least 12,000 feet AGL
Clouds: few clouds at 3500 feet AGL
Weather: no significant weather observed at this time

METAR text: OITT 180400Z 35004KT 9999 FEW035 SCT180 09/01 Q1015 A2999 NOSIG
Conditions at: OITT (TABRIZ(IRAN-AB/C, IR) observed 0400 UTC 18 April 2019
Temperature: 9.0°C (48°F)
Dewpoint: 1.0°C (34°F) [RH = 57%]
Pressure (altimeter): 29.97 inches Hg (1015.0 mb)
Winds: from the N (350 degrees) at 5 MPH (4 knots; 2.1 m/s)
Visibility: 6 or more miles (10+ km)
Ceiling: at least 12,000 feet AGL
Clouds: few clouds at 3500 feet AGL
scattered clouds at 18000 feet AGL
Weather: no significant weather observed at this time

METAR text: OITT 180330Z 33004KT 9999 FEW035 FEW040CB SCT180 07/03 Q1015 A2998
Conditions at: OITT (TABRIZ(IRAN-AB/C, IR) observed 0330 UTC 18 April 2019
Temperature: 7.0°C (45°F)
Dewpoint: 3.0°C (37°F) [RH = 76%]
Pressure (altimeter): 29.97 inches Hg (1015.0 mb)
Winds: from the NNW (330 degrees) at 5 MPH (4 knots; 2.1 m/s)
Visibility: 6 or more miles (10+ km)
Ceiling: at least 12,000 feet AGL
Clouds: few clouds at 3500 feet AGL
few clouds at 4000 feet AGL
scattered clouds at 18000 feet AGL
Weather: no significant weather observed at this time

METAR text: OITT 180300Z 35004KT 9999 FEW035 05/01 Q1015 A2998 NOSIG
Conditions at: OITT (TABRIZ(IRAN-AB/C, IR) observed 0300 UTC 18 April 2019
Temperature: 5.0°C (41°F)
Dewpoint: 1.0°C (34°F) [RH = 75%]
Pressure (altimeter): 29.97 inches Hg (1015.0 mb)
Winds: from the N (350 degrees) at 5 MPH (4 knots; 2.1 m/s)
Visibility: 6 or more miles (10+ km)
Ceiling: at least 12,000 feet AGL
Clouds: few clouds at 3500 feet AGL
Weather: no significant weather observed at this time

METAR text: OITT 180230Z VRB02KT 9999 FEW035 04/00 Q1014 A2997
Conditions at: OITT (TABRIZ(IRAN-AB/C, IR) observed 0230 UTC 18 April 2019
Temperature: 4.0°C (39°F)
Dewpoint: 0.0°C (32°F) [RH = 75%]
Pressure (altimeter): 29.94 inches Hg (1014.0 mb)
Winds: variable direction winds at 2 MPH (2 knots; 1.0 m/s)
Visibility: 6 or more miles (10+ km)
Ceiling: at least 12,000 feet AGL
Clouds: few clouds at 3500 feet AGL
Weather: no significant weather observed at this time

METAR text: OITT 180200Z 31006KT 9999 FEW035 04/00 Q1014 A2996
Conditions at: OITT (TABRIZ(IRAN-AB/C, IR) observed 0200 UTC 18 April 2019
Temperature: 4.0°C (39°F)
Dewpoint: 0.0°C (32°F) [RH = 75%]
Pressure (altimeter): 29.94 inches Hg (1014.0 mb)
Winds: from the NW (310 degrees) at 7 MPH (6 knots; 3.1 m/s)
Visibility: 6 or more miles (10+ km)
Ceiling: at least 12,000 feet AGL
Clouds: few clouds at 3500 feet AGL
Weather: no significant weather observed at this time

METAR text: OITT 180130Z 33008KT 9999 FEW035 03/01 Q1014 A2995
Conditions at: OITT (TABRIZ(IRAN-AB/C, IR) observed 0130 UTC 18 April 2019
Temperature: 3.0°C (37°F)
Dewpoint: 1.0°C (34°F) [RH = 87%]
Pressure (altimeter): 29.94 inches Hg (1014.0 mb)
Winds: from the NNW (330 degrees) at 9 MPH (8 knots; 4.1 m/s)
Visibility: 6 or more miles (10+ km)
Ceiling: at least 12,000 feet AGL
Clouds: few clouds at 3500 feet AGL
Weather: no significant weather observed at this time

METAR text: OITT 180100Z 32006KT 9999 FEW035 04/01 Q1014 A2994
Conditions at: OITT (TABRIZ(IRAN-AB/C, IR) observed 0100 UTC 18 April 2019
Temperature: 4.0°C (39°F)
Dewpoint: 1.0°C (34°F) [RH = 81%]
Pressure (altimeter): 29.94 inches Hg (1014.0 mb)
Winds: from the NW (320 degrees) at 7 MPH (6 knots; 3.1 m/s)
Visibility: 6 or more miles (10+ km)
Ceiling: at least 12,000 feet AGL
Clouds: few clouds at 3500 feet AGL
Weather: no significant weather observed at this time

METAR text: OITT 180030Z 31004KT 9999 FEW035 04/00 Q1013 A2994
Conditions at: OITT (TABRIZ(IRAN-AB/C, IR) observed 0030 UTC 18 April 2019
Temperature: 4.0°C (39°F)
Dewpoint: 0.0°C (32°F) [RH = 75%]
Pressure (altimeter): 29.91 inches Hg (1013.0 mb)
Winds: from the NW (310 degrees) at 5 MPH (4 knots; 2.1 m/s)
Visibility: 6 or more miles (10+ km)
Ceiling: at least 12,000 feet AGL
Clouds: few clouds at 3500 feet AGL
Weather: no significant weather observed at this time

METAR text: OITT 180000Z 33004KT 9999 FEW035 05/01 Q1013 A2993
Conditions at: OITT (TABRIZ(IRAN-AB/C, IR) observed 0000 UTC 18 April 2019
Temperature: 5.0°C (41°F)
Dewpoint: 1.0°C (34°F) [RH = 75%]
Pressure (altimeter): 29.91 inches Hg (1013.0 mb)
Winds: from the NNW (330 degrees) at 5 MPH (4 knots; 2.1 m/s)
Visibility: 6 or more miles (10+ km)
Ceiling: at least 12,000 feet AGL
Clouds: few clouds at 3500 feet AGL
Weather: no significant weather observed at this time

METAR text: OITT 172330Z 29004KT 9999 FEW035 04/00 Q1013 A2992
Conditions at: OITT (TABRIZ(IRAN-AB/C, IR) observed 2330 UTC 17 April 2019
Temperature: 4.0°C (39°F)
Dewpoint: 0.0°C (32°F) [RH = 75%]
Pressure (altimeter): 29.91 inches Hg (1013.0 mb)
Winds: from the WNW (290 degrees) at 5 MPH (4 knots; 2.1 m/s)
Visibility: 6 or more miles (10+ km)
Ceiling: at least 12,000 feet AGL
Clouds: few clouds at 3500 feet AGL
Weather: no significant weather observed at this time

METAR text: OITT 172300Z VRB02KT 9999 FEW035 07/M00 Q1013 A2992
Conditions at: OITT (TABRIZ(IRAN-AB/C, IR) observed 2300 UTC 17 April 2019
Temperature: 7.0°C (45°F)
Dewpoint: 0.0°C (32°F) [RH = 61%]
Pressure (altimeter): 29.91 inches Hg (1013.0 mb)
Winds: variable direction winds at 2 MPH (2 knots; 1.0 m/s)
Visibility: 6 or more miles (10+ km)
Ceiling: at least 12,000 feet AGL
Clouds: few clouds at 3500 feet AGL
Weather: no significant weather observed at this time

METAR text: OITT 172230Z 26004KT 9999 FEW035 08/01 Q1013 A2992
Conditions at: OITT (TABRIZ(IRAN-AB/C, IR) observed 2230 UTC 17 April 2019
Temperature: 8.0°C (46°F)
Dewpoint: 1.0°C (34°F) [RH = 61%]
Pressure (altimeter): 29.91 inches Hg (1013.0 mb)
Winds: from the W (260 degrees) at 5 MPH (4 knots; 2.1 m/s)
Visibility: 6 or more miles (10+ km)
Ceiling: at least 12,000 feet AGL
Clouds: few clouds at 3500 feet AGL
Weather: no significant weather observed at this time

METAR text: OITT 172200Z 21008KT 9999 FEW035 08/01 Q1013 A2992
Conditions at: OITT (TABRIZ(IRAN-AB/C, IR) observed 2200 UTC 17 April 2019
Temperature: 8.0°C (46°F)
Dewpoint: 1.0°C (34°F) [RH = 61%]
Pressure (altimeter): 29.91 inches Hg (1013.0 mb)
Winds: from the SSW (210 degrees) at 9 MPH (8 knots; 4.1 m/s)
Visibility: 6 or more miles (10+ km)
Ceiling: at least 12,000 feet AGL
Clouds: few clouds at 3500 feet AGL
Weather: no significant weather observed at this time

METAR text: OITT 172130Z 21008KT 9999 FEW035 FEW040CB 09/01 Q1013 A2992
Conditions at: OITT (TABRIZ(IRAN-AB/C, IR) observed 2130 UTC 17 April 2019
Temperature: 9.0°C (48°F)
Dewpoint: 1.0°C (34°F) [RH = 57%]
Pressure (altimeter): 29.91 inches Hg (1013.0 mb)
Winds: from the SSW (210 degrees) at 9 MPH (8 knots; 4.1 m/s)
Visibility: 6 or more miles (10+ km)
Ceiling: at least 12,000 feet AGL
Clouds: few clouds at 3500 feet AGL
few clouds at 4000 feet AGL
Weather: no significant weather observed at this time

METAR text: OITT 172100Z 23008KT 9999 FEW035 FEW040CB 08/01 Q1013 A2992
Conditions at: OITT (TABRIZ(IRAN-AB/C, IR) observed 2100 UTC 17 April 2019
Temperature: 8.0°C (46°F)
Dewpoint: 1.0°C (34°F) [RH = 61%]
Pressure (altimeter): 29.91 inches Hg (1013.0 mb)
Winds: from the SW (230 degrees) at 9 MPH (8 knots; 4.1 m/s)
Visibility: 6 or more miles (10+ km)
Ceiling: at least 12,000 feet AGL
Clouds: few clouds at 3500 feet AGL
few clouds at 4000 feet AGL
Weather: no significant weather observed at this time

METAR text: OITT 172030Z 28006KT 9999 FEW035 FEW040CB 08/03 Q1012 A2990
Conditions at: OITT (TABRIZ(IRAN-AB/C, IR) observed 2030 UTC 17 April 2019
Temperature: 8.0°C (46°F)
Dewpoint: 3.0°C (37°F) [RH = 71%]
Pressure (altimeter): 29.88 inches Hg (1012.0 mb)
Winds: from the W (280 degrees) at 7 MPH (6 knots; 3.1 m/s)
Visibility: 6 or more miles (10+ km)
Ceiling: at least 12,000 feet AGL
Clouds: few clouds at 3500 feet AGL
few clouds at 4000 feet AGL
Weather: no significant weather observed at this time

METAR text: OITT 172000Z 26004KT 9999 FEW035 FEW040CB 08/03 Q1012 A2990 NOSIG
Conditions at: OITT (TABRIZ(IRAN-AB/C, IR) observed 2000 UTC 17 April 2019
Temperature: 8.0°C (46°F)
Dewpoint: 3.0°C (37°F) [RH = 71%]
Pressure (altimeter): 29.88 inches Hg (1012.0 mb)
Winds: from the W (260 degrees) at 5 MPH (4 knots; 2.1 m/s)
Visibility: 6 or more miles (10+ km)
Ceiling: at least 12,000 feet AGL
Clouds: few clouds at 3500 feet AGL
few clouds at 4000 feet AGL
Weather: no significant weather observed at this time

METAR text: OITT 171930Z 27004KT 9999 FEW035 FEW040CB 08/01 Q1012 A2988
Conditions at: OITT (TABRIZ(IRAN-AB/C, IR) observed 1930 UTC 17 April 2019
Temperature: 8.0°C (46°F)
Dewpoint: 1.0°C (34°F) [RH = 61%]
Pressure (altimeter): 29.88 inches Hg (1012.0 mb)
Winds: from the W (270 degrees) at 5 MPH (4 knots; 2.1 m/s)
Visibility: 6 or more miles (10+ km)
Ceiling: at least 12,000 feet AGL
Clouds: few clouds at 3500 feet AGL
few clouds at 4000 feet AGL
Weather: no significant weather observed at this time

METAR text: OITT 171900Z 24008KT 9999 FEW035 FEW040CB 10/01 Q1012 A2988 NOSIG
Conditions at: OITT (TABRIZ(IRAN-AB/C, IR) observed 1900 UTC 17 April 2019
Temperature: 10.0°C (50°F)
Dewpoint: 1.0°C (34°F) [RH = 53%]
Pressure (altimeter): 29.88 inches Hg (1012.0 mb)
Winds: from the WSW (240 degrees) at 9 MPH (8 knots; 4.1 m/s)
Visibility: 6 or more miles (10+ km)
Ceiling: at least 12,000 feet AGL
Clouds: few clouds at 3500 feet AGL
few clouds at 4000 feet AGL
Weather: no significant weather observed at this time

METAR text: OITT 171830Z 22010KT 9999 FEW035 FEW040CB 10/02 Q1011 A2987
Conditions at: OITT (TABRIZ(IRAN-AB/C, IR) observed 1830 UTC 17 April 2019
Temperature: 10.0°C (50°F)
Dewpoint: 2.0°C (36°F) [RH = 57%]
Pressure (altimeter): 29.85 inches Hg (1011.0 mb)
Winds: from the SW (220 degrees) at 12 MPH (10 knots; 5.1 m/s)
Visibility: 6 or more miles (10+ km)
Ceiling: at least 12,000 feet AGL
Clouds: few clouds at 3500 feet AGL
few clouds at 4000 feet AGL
Weather: no significant weather observed at this time

METAR text: OITT 171800Z 22010KT 9999 FEW035 FEW040CB 11/02 Q1011 A2987 NOSIG
Conditions at: OITT (TABRIZ(IRAN-AB/C, IR) observed 1800 UTC 17 April 2019
Temperature: 11.0°C (52°F)
Dewpoint: 2.0°C (36°F) [RH = 54%]
Pressure (altimeter): 29.85 inches Hg (1011.0 mb)
Winds: from the SW (220 degrees) at 12 MPH (10 knots; 5.1 m/s)
Visibility: 6 or more miles (10+ km)
Ceiling: at least 12,000 feet AGL
Clouds: few clouds at 3500 feet AGL
few clouds at 4000 feet AGL
Weather: no significant weather observed at this time

METAR text: OITT 171730Z 22008KT 9999 FEW035 FEW040CB 10/02 Q1011 A2986
Conditions at: OITT (TABRIZ(IRAN-AB/C, IR) observed 1730 UTC 17 April 2019
Temperature: 10.0°C (50°F)
Dewpoint: 2.0°C (36°F) [RH = 57%]
Pressure (altimeter): 29.85 inches Hg (1011.0 mb)
Winds: from the SW (220 degrees) at 9 MPH (8 knots; 4.1 m/s)
Visibility: 6 or more miles (10+ km)
Ceiling: at least 12,000 feet AGL
Clouds: few clouds at 3500 feet AGL
few clouds at 4000 feet AGL
Weather: no significant weather observed at this time

METAR text: OITT 171700Z 23008KT 9999 FEW035 FEW040CB 11/02 Q1010 A2985 NOSIG
Conditions at: OITT (TABRIZ(IRAN-AB/C, IR) observed 1700 UTC 17 April 2019
Temperature: 11.0°C (52°F)
Dewpoint: 2.0°C (36°F) [RH = 54%]
Pressure (altimeter): 29.82 inches Hg (1010.0 mb)
Winds: from the SW (230 degrees) at 9 MPH (8 knots; 4.1 m/s)
Visibility: 6 or more miles (10+ km)
Ceiling: at least 12,000 feet AGL
Clouds: few clouds at 3500 feet AGL
few clouds at 4000 feet AGL
Weather: no significant weather observed at this time

METAR text: OITT 171630Z 21012KT 9999 FEW030TCU FEW035CB 11/01 Q1010 A2985
Conditions at: OITT (TABRIZ(IRAN-AB/C, IR) observed 1630 UTC 17 April 2019
Temperature: 11.0°C (52°F)
Dewpoint: 1.0°C (34°F) [RH = 50%]
Pressure (altimeter): 29.82 inches Hg (1010.0 mb)
Winds: from the SSW (210 degrees) at 14 MPH (12 knots; 6.2 m/s)
Visibility: 6 or more miles (10+ km)
Ceiling: at least 12,000 feet AGL
Clouds: few clouds at 3000 feet AGL
few clouds at 3500 feet AGL
Weather: no significant weather observed at this time

METAR text: OITT 171600Z 24014KT 9999 FEW030TCU FEW035CB 12/01 Q1010 A2983 NOSIG
Conditions at: OITT (TABRIZ(IRAN-AB/C, IR) observed 1600 UTC 17 April 2019
Temperature: 12.0°C (54°F)
Dewpoint: 1.0°C (34°F) [RH = 47%]
Pressure (altimeter): 29.82 inches Hg (1010.0 mb)
Winds: from the WSW (240 degrees) at 16 MPH (14 knots; 7.2 m/s)
Visibility: 6 or more miles (10+ km)
Ceiling: at least 12,000 feet AGL
Clouds: few clouds at 3000 feet AGL
few clouds at 3500 feet AGL
Weather: no significant weather observed at this time

METAR text: OITT 171530Z 24010KT 9999 FEW030TCU FEW035CB 12/01 Q1009 A2982
Conditions at: OITT (TABRIZ(IRAN-AB/C, IR) observed 1530 UTC 17 April 2019
Temperature: 12.0°C (54°F)
Dewpoint: 1.0°C (34°F) [RH = 47%]
Pressure (altimeter): 29.79 inches Hg (1009.0 mb)
Winds: from the WSW (240 degrees) at 12 MPH (10 knots; 5.1 m/s)
Visibility: 6 or more miles (10+ km)
Ceiling: at least 12,000 feet AGL
Clouds: few clouds at 3000 feet AGL
few clouds at 3500 feet AGL
Weather: no significant weather observed at this time

METAR text: OITT 171500Z 22018KT 9999 SCT030 FEW035CB 13/01 Q1010 A2983 NOSIG
Conditions at: OITT (TABRIZ(IRAN-AB/C, IR) observed 1500 UTC 17 April 2019
Temperature: 13.0°C (55°F)
Dewpoint: 1.0°C (34°F) [RH = 44%]
Pressure (altimeter): 29.82 inches Hg (1010.0 mb)
Winds: from the SW (220 degrees) at 21 MPH (18 knots; 9.3 m/s)
Visibility: 6 or more miles (10+ km)
Ceiling: at least 12,000 feet AGL
Clouds: scattered clouds at 3000 feet AGL
few clouds at 3500 feet AGL
Weather: no significant weather observed at this time

METAR text: OITT 171430Z 24016KT 9999 SCT030 FEW035CB 14/01 Q1009 A2982
Conditions at: OITT (TABRIZ(IRAN-AB/C, IR) observed 1430 UTC 17 April 2019
Temperature: 14.0°C (57°F)
Dewpoint: 1.0°C (34°F) [RH = 41%]
Pressure (altimeter): 29.79 inches Hg (1009.0 mb)
Winds: from the WSW (240 degrees) at 18 MPH (16 knots; 8.2 m/s)
Visibility: 6 or more miles (10+ km)
Ceiling: at least 12,000 feet AGL
Clouds: scattered clouds at 3000 feet AGL
few clouds at 3500 feet AGL
Weather: no significant weather observed at this time

METAR text: OITT 171400Z 24019KT 9999 SCT030 FEW035CB 14/01 Q1009 A2982 NOSIG
Conditions at: OITT (TABRIZ(IRAN-AB/C, IR) observed 1400 UTC 17 April 2019
Temperature: 14.0°C (57°F)
Dewpoint: 1.0°C (34°F) [RH = 41%]
Pressure (altimeter): 29.79 inches Hg (1009.0 mb)
Winds: from the WSW (240 degrees) at 22 MPH (19 knots; 9.8 m/s)
Visibility: 6 or more miles (10+ km)
Ceiling: at least 12,000 feet AGL
Clouds: scattered clouds at 3000 feet AGL
few clouds at 3500 feet AGL
Weather: no significant weather observed at this time

METAR text: OITT 171330Z 27025KT 9999 SCT030 FEW035CB 14/01 Q1009 A2981
Conditions at: OITT (TABRIZ(IRAN-AB/C, IR) observed 1330 UTC 17 April 2019
Temperature: 14.0°C (57°F)
Dewpoint: 1.0°C (34°F) [RH = 41%]
Pressure (altimeter): 29.79 inches Hg (1009.0 mb)
Winds: from the W (270 degrees) at 29 MPH (25 knots; 12.9 m/s)
Visibility: 6 or more miles (10+ km)
Ceiling: at least 12,000 feet AGL
Clouds: scattered clouds at 3000 feet AGL
few clouds at 3500 feet AGL
Weather: no significant weather observed at this time

METAR text: OITT 171300Z 27014KT 9999 SCT030 FEW035CB 15/02 Q1009 A2980 NOSIG
Conditions at: OITT (TABRIZ(IRAN-AB/C, IR) observed 1300 UTC 17 April 2019
Temperature: 15.0°C (59°F)
Dewpoint: 2.0°C (36°F) [RH = 41%]
Pressure (altimeter): 29.79 inches Hg (1009.0 mb)
Winds: from the W (270 degrees) at 16 MPH (14 knots; 7.2 m/s)
Visibility: 6 or more miles (10+ km)
Ceiling: at least 12,000 feet AGL
Clouds: scattered clouds at 3000 feet AGL
few clouds at 3500 feet AGL
Weather: no significant weather observed at this time

METAR text: OITT 171230Z 25016KT 9999 SCT030 FEW035CB SCT080 15/04 Q1009 A2980
Conditions at: OITT (TABRIZ(IRAN-AB/C, IR) observed 1230 UTC 17 April 2019
Temperature: 15.0°C (59°F)
Dewpoint: 4.0°C (39°F) [RH = 48%]
Pressure (altimeter): 29.79 inches Hg (1009.0 mb)
Winds: from the WSW (250 degrees) at 18 MPH (16 knots; 8.2 m/s)
Visibility: 6 or more miles (10+ km)
Ceiling: at least 12,000 feet AGL
Clouds: scattered clouds at 3000 feet AGL
few clouds at 3500 feet AGL
scattered clouds at 8000 feet AGL
Weather: no significant weather observed at this time

METAR text: OITT 171200Z 24018KT 9999 SCT030 FEW035CB SCT080 14/03 Q1009 A2980 NOSIG
Conditions at: OITT (TABRIZ(IRAN-AB/C, IR) observed 1200 UTC 17 April 2019
Temperature: 14.0°C (57°F)
Dewpoint: 3.0°C (37°F) [RH = 47%]
Pressure (altimeter): 29.79 inches Hg (1009.0 mb)
Winds: from the WSW (240 degrees) at 21 MPH (18 knots; 9.3 m/s)
Visibility: 6 or more miles (10+ km)
Ceiling: at least 12,000 feet AGL
Clouds: scattered clouds at 3000 feet AGL
few clouds at 3500 feet AGL
scattered clouds at 8000 feet AGL
Weather: no significant weather observed at this time

METAR text: OITT 171130Z 23012KT 9999 SCT030 FEW035CB 14/05 Q1009 A2980
Conditions at: OITT (TABRIZ(IRAN-AB/C, IR) observed 1130 UTC 17 April 2019
Temperature: 14.0°C (57°F)
Dewpoint: 5.0°C (41°F) [RH = 55%]
Pressure (altimeter): 29.79 inches Hg (1009.0 mb)
Winds: from the SW (230 degrees) at 14 MPH (12 knots; 6.2 m/s)
Visibility: 6 or more miles (10+ km)
Ceiling: at least 12,000 feet AGL
Clouds: scattered clouds at 3000 feet AGL
few clouds at 3500 feet AGL
Weather: no significant weather observed at this time

METAR text: OITT 171100Z 24010KT 9999 SCT030 FEW035CB 14/05 Q1009 A2980 NOSIG
Conditions at: OITT (TABRIZ(IRAN-AB/C, IR) observed 1100 UTC 17 April 2019
Temperature: 14.0°C (57°F)
Dewpoint: 5.0°C (41°F) [RH = 55%]
Pressure (altimeter): 29.79 inches Hg (1009.0 mb)
Winds: from the WSW (240 degrees) at 12 MPH (10 knots; 5.1 m/s)
Visibility: 6 or more miles (10+ km)
Ceiling: at least 12,000 feet AGL
Clouds: scattered clouds at 3000 feet AGL
few clouds at 3500 feet AGL
Weather: no significant weather observed at this time

METAR text: OITT 171030Z 28010KT 9999 SCT027 FEW035CB 12/08 Q1009 A2980
Conditions at: OITT (TABRIZ(IRAN-AB/C, IR) observed 1030 UTC 17 April 2019
Temperature: 12.0°C (54°F)
Dewpoint: 8.0°C (46°F) [RH = 76%]
Pressure (altimeter): 29.79 inches Hg (1009.0 mb)
Winds: from the W (280 degrees) at 12 MPH (10 knots; 5.1 m/s)
Visibility: 6 or more miles (10+ km)
Ceiling: at least 12,000 feet AGL
Clouds: scattered clouds at 2700 feet AGL
few clouds at 3500 feet AGL
Weather: no significant weather observed at this time

METAR text: OITT 171000Z 27008KT 9999 SCT027 FEW035CB 12/08 Q1009 A2980 NOSIG
Conditions at: OITT (TABRIZ(IRAN-AB/C, IR) observed 1000 UTC 17 April 2019
Temperature: 12.0°C (54°F)
Dewpoint: 8.0°C (46°F) [RH = 76%]
Pressure (altimeter): 29.79 inches Hg (1009.0 mb)
Winds: from the W (270 degrees) at 9 MPH (8 knots; 4.1 m/s)
Visibility: 6 or more miles (10+ km)
Ceiling: at least 12,000 feet AGL
Clouds: scattered clouds at 2700 feet AGL
few clouds at 3500 feet AGL
Weather: no significant weather observed at this time

METAR text: OITT 170930Z 31008KT 9999 SCT027 FEW035CB 12/08 Q1009 A2980
Conditions at: OITT (TABRIZ(IRAN-AB/C, IR) observed 0930 UTC 17 April 2019
Temperature: 12.0°C (54°F)
Dewpoint: 8.0°C (46°F) [RH = 76%]
Pressure (altimeter): 29.79 inches Hg (1009.0 mb)
Winds: from the NW (310 degrees) at 9 MPH (8 knots; 4.1 m/s)
Visibility: 6 or more miles (10+ km)
Ceiling: at least 12,000 feet AGL
Clouds: scattered clouds at 2700 feet AGL
few clouds at 3500 feet AGL
Weather: no significant weather observed at this time

METAR text: OITT 170900Z 29004KT 9999 VCSH FEW015 SCT035CB BKN080 10/05 Q1009 A2980 TEMPO SHRA
Conditions at: OITT (TABRIZ(IRAN-AB/C, IR) observed 0900 UTC 17 April 2019
Temperature: 10.0°C (50°F)
Dewpoint: 5.0°C (41°F) [RH = 71%]
Pressure (altimeter): 29.79 inches Hg (1009.0 mb)
Winds: from the WNW (290 degrees) at 5 MPH (4 knots; 2.1 m/s)
Visibility: 6 or more miles (10+ km)
Ceiling: 8000 feet AGL
Clouds: few clouds at 1500 feet AGL
scattered clouds at 3500 feet AGL
broken clouds at 8000 feet AGL
Weather: VCSH  (showers in vicinity)

METAR text: OITT 170830Z 02004KT 9999 VCSH FEW015 SCT035CB BKN080 10/06 Q1009 A2980
Conditions at: OITT (TABRIZ(IRAN-AB/C, IR) observed 0830 UTC 17 April 2019
Temperature: 10.0°C (50°F)
Dewpoint: 6.0°C (43°F) [RH = 76%]
Pressure (altimeter): 29.79 inches Hg (1009.0 mb)
Winds: from the NNE (20 degrees) at 5 MPH (4 knots; 2.1 m/s)
Visibility: 6 or more miles (10+ km)
Ceiling: 8000 feet AGL
Clouds: few clouds at 1500 feet AGL
scattered clouds at 3500 feet AGL
broken clouds at 8000 feet AGL
Weather: VCSH  (showers in vicinity)

METAR text: OITT 170800Z VRB02KT 8000 TS VCSH FEW015 SCT035CB BKN080 08/06 Q1009 A2980 TEMPO TSRA
Conditions at: OITT (TABRIZ(IRAN-AB/C, IR) observed 0800 UTC 17 April 2019
Temperature: 8.0°C (46°F)
Dewpoint: 6.0°C (43°F) [RH = 87%]
Pressure (altimeter): 29.79 inches Hg (1009.0 mb)
Winds: variable direction winds at 2 MPH (2 knots; 1.0 m/s)
Visibility: 5 miles ( 8 km)
Ceiling: 8000 feet AGL
Clouds: few clouds at 1500 feet AGL
scattered clouds at 3500 feet AGL
broken clouds at 8000 feet AGL
Weather: TS VCSH  (thunderstorm, showers in vicinity)

METAR text: OITT 170730Z VRB02KT 8000 VCSH FEW015 SCT035CB BKN080 06/05 Q1009 A2980
Conditions at: OITT (TABRIZ(IRAN-AB/C, IR) observed 0730 UTC 17 April 2019
Temperature: 6.0°C (43°F)
Dewpoint: 5.0°C (41°F) [RH = 93%]
Pressure (altimeter): 29.79 inches Hg (1009.0 mb)
Winds: variable direction winds at 2 MPH (2 knots; 1.0 m/s)
Visibility: 5 miles ( 8 km)
Ceiling: 8000 feet AGL
Clouds: few clouds at 1500 feet AGL
scattered clouds at 3500 feet AGL
broken clouds at 8000 feet AGL
Weather: VCSH  (showers in vicinity)

Forecast for: OITT (TABRIZ(IRAN-AB/C, IR)
Text: TAF OITT 181730Z 1818/1924 24010KT 8000 FEW030 FEW035CB BKN120
Forecast period: 1800 UTC 18 April 2019 to 1800 UTC 19 April 2019
Forecast type: FROM: standard forecast or significant change
Winds: from the WSW (240 degrees) at 12 MPH (10 knots; 5.1 m/s)
Visibility: 5 miles (8 km)
Ceiling: 12000 feet AGL
Clouds: few clouds at 3000 feet AGL
few clouds at 3500 feet AGL
broken clouds at 12000 feet AGL
Weather: no significant weather forecast for this period
Text: TEMPO 1818/1824 26014KT
Forecast period: 1800 UTC 18 April 2019 to 0000 UTC 19 April 2019
Forecast type: TEMPORARY: The following changes expected for less than half the time period
Winds: from the W (260 degrees) at 16 MPH (14 knots; 7.2 m/s)
Visibility: missing
Ceiling: unknown
Clouds: missing
Weather: no significant weather forecast for this period
Text: TEMPO 1909/1918 24016KT 5000 TS/SHRA SCT030CB SCT035 OVC090
Forecast period: 0900 to 1800 UTC 19 April 2019
Forecast type: TEMPORARY: The following changes expected for less than half the time period
Winds: from the WSW (240 degrees) at 18 MPH (16 knots; 8.2 m/s)
Visibility: 3 miles (5 km)
Ceiling: 9000 feet AGL
Clouds: scattered clouds at 3000 feet AGL
scattered clouds at 3500 feet AGL
overcast cloud deck at 9000 feet AGL
Weather: SHRA TS  (rain showers, thunderstorm)
Text: BECMG 1918/1920 08012KT 5000 RA/BR
Forecast period: 1800 UTC 19 April 2019 to 0000 UTC 20 April 2019
Forecast type: BECOMING: Conditions expected to become as follows by 2000 UTC 19 April 2019
Winds: from the E (80 degrees) at 14 MPH (12 knots; 6.2 m/s)
Visibility: 3 miles (5 km)
Ceiling: 12000 feet AGL
Clouds: few clouds at 3000 feet AGL
few clouds at 3500 feet AGL
broken clouds at 12000 feet AGL
Weather: RA BR  (moderate rain, mist)
Text: PROB40 1921/1924 TS
Forecast period: 2100 UTC 19 April 2019 to 0000 UTC 20 April 2019
Forecast type: PROBABLE: 40 percent likelihood of the following during this time
Visibility: missing
Ceiling: unknown
Clouds: missing
Weather: TS  (thunderstorm)